Terminal Aerodrome Forecast
Issued by NWS

Current Version | Previous Version | Graphics & Text | Print | Product List | Glossary On
Versions: 1 2 3 4 5 6 7 8 9 10 11 12 13 14 15 16
000
FTUS41 KPBZ 050523
TAFMGW
TAF
KMGW 050523Z 0506/0606 08003KT P6SM BKN090
     FM052000 25004KT P6SM VCTS BKN040CB
     FM060300 33003KT P6SM BKN080=

USA.gov is the U.S. government's official web portal to all federal, state and local government web resources and services.